sensor_id;sensor_type;location;lat;lon;timestamp;P1;durP1;ratioP1;P2;durP2;ratioP2
48199;SDS011;33990;44.602;10.976;2024-01-16T00:01:07;16.40;;;13.07;;
48199;SDS011;33990;44.602;10.976;2024-01-16T00:03:36;16.98;;;14.18;;
48199;SDS011;33990;44.602;10.976;2024-01-16T00:06:05;15.43;;;13.82;;
48199;SDS011;33990;44.602;10.976;2024-01-16T00:08:33;16.90;;;15.15;;
48199;SDS011;33990;44.602;10.976;2024-01-16T00:11:01;17.58;;;14.25;;
48199;SDS011;33990;44.602;10.976;2024-01-16T00:13:30;16.50;;;14.70;;
48199;SDS011;33990;44.602;10.976;2024-01-16T00:16:01;14.55;;;13.15;;
48199;SDS011;33990;44.602;10.976;2024-01-16T00:18:29;16.40;;;14.70;;
48199;SDS011;33990;44.602;10.976;2024-01-16T00:20:57;15.88;;;14.27;;
48199;SDS011;33990;44.602;10.976;2024-01-16T00:23:24;15.80;;;14.10;;
48199;SDS011;33990;44.602;10.976;2024-01-16T00:25:52;15.93;;;14.32;;
48199;SDS011;33990;44.602;10.976;2024-01-16T00:28:19;15.25;;;13.70;;
48199;SDS011;33990;44.602;10.976;2024-01-16T00:30:46;17.40;;;15.60;;
48199;SDS011;33990;44.602;10.976;2024-01-16T00:33:14;16.08;;;13.80;;
48199;SDS011;33990;44.602;10.976;2024-01-16T00:35:41;15.93;;;14.18;;
48199;SDS011;33990;44.602;10.976;2024-01-16T00:38:09;16.50;;;14.57;;
48199;SDS011;33990;44.602;10.976;2024-01-16T00:40:36;15.57;;;14.07;;
48199;SDS011;33990;44.602;10.976;2024-01-16T00:43:03;16.15;;;14.35;;
48199;SDS011;33990;44.602;10.976;2024-01-16T00:45:31;15.63;;;13.50;;
48199;SDS011;33990;44.602;10.976;2024-01-16T00:47:58;15.63;;;14.02;;
48199;SDS011;33990;44.602;10.976;2024-01-16T00:50:25;16.10;;;14.30;;
48199;SDS011;33990;44.602;10.976;2024-01-16T00:52:53;16.05;;;14.43;;
48199;SDS011;33990;44.602;10.976;2024-01-16T00:55:21;16.80;;;15.00;;
48199;SDS011;33990;44.602;10.976;2024-01-16T00:57:48;16.52;;;14.82;;
48199;SDS011;33990;44.602;10.976;2024-01-16T01:00:15;15.90;;;14.00;;
48199;SDS011;33990;44.602;10.976;2024-01-16T01:02:43;15.95;;;14.45;;
48199;SDS011;33990;44.602;10.976;2024-01-16T01:05:11;15.57;;;13.98;;
48199;SDS011;33990;44.602;10.976;2024-01-16T01:07:38;15.38;;;13.63;;
48199;SDS011;33990;44.602;10.976;2024-01-16T01:10:06;15.73;;;14.13;;
48199;SDS011;33990;44.602;10.976;2024-01-16T01:12:33;16.52;;;13.82;;
48199;SDS011;33990;44.602;10.976;2024-01-16T01:15:01;15.85;;;14.25;;
48199;SDS011;33990;44.602;10.976;2024-01-16T01:17:29;16.40;;;14.70;;
48199;SDS011;33990;44.602;10.976;2024-01-16T01:19:56;16.33;;;14.63;;
48199;SDS011;33990;44.602;10.976;2024-01-16T01:22:23;16.25;;;14.45;;
48199;SDS011;33990;44.602;10.976;2024-01-16T01:24:51;16.35;;;14.65;;
48199;SDS011;33990;44.602;10.976;2024-01-16T01:27:18;16.52;;;14.85;;
48199;SDS011;33990;44.602;10.976;2024-01-16T01:29:45;15.63;;;13.70;;
48199;SDS011;33990;44.602;10.976;2024-01-16T01:32:13;16.05;;;14.45;;
48199;SDS011;33990;44.602;10.976;2024-01-16T01:34:43;16.20;;;13.98;;
48199;SDS011;33990;44.602;10.976;2024-01-16T01:37:10;15.23;;;13.63;;
48199;SDS011;33990;44.602;10.976;2024-01-16T01:39:38;15.07;;;13.57;;
48199;SDS011;33990;44.602;10.976;2024-01-16T01:42:05;17.08;;;13.98;;
48199;SDS011;33990;44.602;10.976;2024-01-16T01:44:32;15.18;;;13.43;;
48199;SDS011;33990;44.602;10.976;2024-01-16T01:47:00;16.02;;;14.23;;
48199;SDS011;33990;44.602;10.976;2024-01-16T01:49:27;16.42;;;14.68;;
48199;SDS011;33990;44.602;10.976;2024-01-16T01:51:55;15.95;;;14.32;;
48199;SDS011;33990;44.602;10.976;2024-01-16T01:54:23;14.10;;;12.70;;
48199;SDS011;33990;44.602;10.976;2024-01-16T01:56:51;14.32;;;12.82;;
48199;SDS011;33990;44.602;10.976;2024-01-16T01:59:19;14.98;;;13.48;;
48199;SDS011;33990;44.602;10.976;2024-01-16T02:01:50;15.32;;;13.27;;
48199;SDS011;33990;44.602;10.976;2024-01-16T02:04:22;14.88;;;13.27;;
48199;SDS011;33990;44.602;10.976;2024-01-16T02:06:50;14.98;;;13.48;;
48199;SDS011;33990;44.602;10.976;2024-01-16T02:09:17;15.50;;;13.30;;
48199;SDS011;33990;44.602;10.976;2024-01-16T02:11:44;14.38;;;13.05;;
48199;SDS011;33990;44.602;10.976;2024-01-16T02:14:12;16.17;;;13.32;;
48199;SDS011;33990;44.602;10.976;2024-01-16T02:16:40;14.23;;;12.80;;
48199;SDS011;33990;44.602;10.976;2024-01-16T02:19:08;13.27;;;11.90;;
48199;SDS011;33990;44.602;10.976;2024-01-16T02:24:09;14.70;;;13.17;;
48199;SDS011;33990;44.602;10.976;2024-01-16T02:26:38;14.98;;;13.48;;
48199;SDS011;33990;44.602;10.976;2024-01-16T02:29:06;15.10;;;13.60;;
48199;SDS011;33990;44.602;10.976;2024-01-16T02:31:34;15.38;;;13.80;;
48199;SDS011;33990;44.602;10.976;2024-01-16T02:34:02;14.00;;;12.55;;
48199;SDS011;33990;44.602;10.976;2024-01-16T02:36:31;13.68;;;12.27;;
48199;SDS011;33990;44.602;10.976;2024-01-16T02:38:59;14.45;;;12.88;;
48199;SDS011;33990;44.602;10.976;2024-01-16T02:41:26;14.27;;;12.77;;
48199;SDS011;33990;44.602;10.976;2024-01-16T02:43:54;14.55;;;13.05;;
48199;SDS011;33990;44.602;10.976;2024-01-16T02:46:21;14.27;;;12.77;;
48199;SDS011;33990;44.602;10.976;2024-01-16T02:48:49;15.95;;;13.00;;
48199;SDS011;33990;44.602;10.976;2024-01-16T02:51:16;14.20;;;12.77;;
48199;SDS011;33990;44.602;10.976;2024-01-16T02:53:43;14.80;;;13.35;;
48199;SDS011;33990;44.602;10.976;2024-01-16T02:56:11;13.27;;;11.88;;
48199;SDS011;33990;44.602;10.976;2024-01-16T02:58:38;14.95;;;13.43;;
48199;SDS011;33990;44.602;10.976;2024-01-16T03:01:05;14.00;;;12.60;;
48199;SDS011;33990;44.602;10.976;2024-01-16T03:03:33;13.85;;;12.35;;
48199;SDS011;33990;44.602;10.976;2024-01-16T03:06:00;14.07;;;12.68;;
48199;SDS011;33990;44.602;10.976;2024-01-16T03:08:28;14.07;;;12.57;;
48199;SDS011;33990;44.602;10.976;2024-01-16T03:10:56;14.90;;;12.57;;
48199;SDS011;33990;44.602;10.976;2024-01-16T03:13:23;12.90;;;11.50;;
48199;SDS011;33990;44.602;10.976;2024-01-16T03:15:51;13.70;;;12.30;;
48199;SDS011;33990;44.602;10.976;2024-01-16T03:18:18;13.32;;;11.85;;
48199;SDS011;33990;44.602;10.976;2024-01-16T03:20:46;14.50;;;13.00;;
48199;SDS011;33990;44.602;10.976;2024-01-16T03:23:13;14.07;;;12.63;;
48199;SDS011;33990;44.602;10.976;2024-01-16T03:25:40;12.52;;;11.32;;
48199;SDS011;33990;44.602;10.976;2024-01-16T03:28:08;13.60;;;12.18;;
48199;SDS011;33990;44.602;10.976;2024-01-16T03:30:37;14.18;;;12.70;;
48199;SDS011;33990;44.602;10.976;2024-01-16T03:33:05;13.10;;;11.77;;
48199;SDS011;33990;44.602;10.976;2024-01-16T03:35:32;12.80;;;11.60;;
48199;SDS011;33990;44.602;10.976;2024-01-16T03:38:00;13.38;;;11.57;;
48199;SDS011;33990;44.602;10.976;2024-01-16T03:40:28;15.20;;;12.32;;
48199;SDS011;33990;44.602;10.976;2024-01-16T03:43:01;12.55;;;11.20;;
48199;SDS011;33990;44.602;10.976;2024-01-16T03:45:28;14.13;;;12.30;;
48199;SDS011;33990;44.602;10.976;2024-01-16T03:47:56;11.93;;;10.75;;
48199;SDS011;33990;44.602;10.976;2024-01-16T03:50:23;12.90;;;11.60;;
48199;SDS011;33990;44.602;10.976;2024-01-16T03:52:51;14.15;;;12.65;;
48199;SDS011;33990;44.602;10.976;2024-01-16T03:55:18;12.82;;;11.50;;
48199;SDS011;33990;44.602;10.976;2024-01-16T03:57:46;12.85;;;11.50;;
48199;SDS011;33990;44.602;10.976;2024-01-16T04:00:13;12.77;;;11.48;;
48199;SDS011;33990;44.602;10.976;2024-01-16T04:02:41;12.82;;;11.50;;
48199;SDS011;33990;44.602;10.976;2024-01-16T04:05:08;12.82;;;11.25;;
48199;SDS011;33990;44.602;10.976;2024-01-16T04:07:36;13.23;;;11.82;;
48199;SDS011;33990;44.602;10.976;2024-01-16T04:10:03;12.93;;;11.73;;
48199;SDS011;33990;44.602;10.976;2024-01-16T04:12:32;12.48;;;10.60;;
48199;SDS011;33990;44.602;10.976;2024-01-16T04:14:59;13.23;;;11.93;;
48199;SDS011;33990;44.602;10.976;2024-01-16T04:17:27;13.27;;;11.85;;
48199;SDS011;33990;44.602;10.976;2024-01-16T04:19:54;12.88;;;11.68;;
48199;SDS011;33990;44.602;10.976;2024-01-16T04:22:21;13.07;;;11.68;;
48199;SDS011;33990;44.602;10.976;2024-01-16T04:24:48;12.82;;;11.50;;
48199;SDS011;33990;44.602;10.976;2024-01-16T04:27:16;12.85;;;11.50;;
48199;SDS011;33990;44.602;10.976;2024-01-16T04:29:43;13.43;;;11.65;;
48199;SDS011;33990;44.602;10.976;2024-01-16T04:32:11;12.93;;;11.63;;
48199;SDS011;33990;44.602;10.976;2024-01-16T04:34:38;12.85;;;11.50;;
48199;SDS011;33990;44.602;10.976;2024-01-16T04:37:05;13.13;;;11.32;;
48199;SDS011;33990;44.602;10.976;2024-01-16T04:39:33;12.25;;;11.05;;
48199;SDS011;33990;44.602;10.976;2024-01-16T04:42:00;12.23;;;10.95;;
48199;SDS011;33990;44.602;10.976;2024-01-16T04:44:27;13.45;;;11.93;;
48199;SDS011;33990;44.602;10.976;2024-01-16T04:46:56;11.43;;;10.32;;
48199;SDS011;33990;44.602;10.976;2024-01-16T04:49:23;12.55;;;10.40;;
48199;SDS011;33990;44.602;10.976;2024-01-16T04:51:51;12.10;;;10.80;;
48199;SDS011;33990;44.602;10.976;2024-01-16T04:54:18;11.68;;;10.48;;
48199;SDS011;33990;44.602;10.976;2024-01-16T04:56:45;11.95;;;10.60;;
48199;SDS011;33990;44.602;10.976;2024-01-16T04:59:15;12.63;;;11.32;;
48199;SDS011;33990;44.602;10.976;2024-01-16T05:01:43;12.68;;;11.35;;
48199;SDS011;33990;44.602;10.976;2024-01-16T05:04:10;13.02;;;11.65;;
48199;SDS011;33990;44.602;10.976;2024-01-16T05:06:38;13.38;;;11.82;;
48199;SDS011;33990;44.602;10.976;2024-01-16T05:09:06;12.60;;;11.30;;
48199;SDS011;33990;44.602;10.976;2024-01-16T05:11:33;11.70;;;10.50;;
48199;SDS011;33990;44.602;10.976;2024-01-16T05:14:01;12.30;;;11.10;;
48199;SDS011;33990;44.602;10.976;2024-01-16T05:16:29;12.60;;;11.40;;
48199;SDS011;33990;44.602;10.976;2024-01-16T05:18:56;12.00;;;10.75;;
48199;SDS011;33990;44.602;10.976;2024-01-16T05:21:23;13.20;;;11.80;;
48199;SDS011;33990;44.602;10.976;2024-01-16T05:23:51;12.38;;;11.07;;
48199;SDS011;33990;44.602;10.976;2024-01-16T05:26:18;14.45;;;11.73;;
48199;SDS011;33990;44.602;10.976;2024-01-16T05:28:45;12.23;;;10.98;;
48199;SDS011;33990;44.602;10.976;2024-01-16T05:31:13;11.65;;;10.45;;
48199;SDS011;33990;44.602;10.976;2024-01-16T05:33:40;13.13;;;11.63;;
48199;SDS011;33990;44.602;10.976;2024-01-16T05:36:08;12.13;;;10.57;;
48199;SDS011;33990;44.602;10.976;2024-01-16T05:38:35;11.82;;;10.65;;
48199;SDS011;33990;44.602;10.976;2024-01-16T05:41:04;12.27;;;11.02;;
48199;SDS011;33990;44.602;10.976;2024-01-16T05:43:32;12.05;;;10.77;;
48199;SDS011;33990;44.602;10.976;2024-01-16T05:45:59;12.63;;;11.32;;
48199;SDS011;33990;44.602;10.976;2024-01-16T05:48:27;11.10;;;10.02;;
48199;SDS011;33990;44.602;10.976;2024-01-16T05:50:55;12.82;;;10.30;;
48199;SDS011;33990;44.602;10.976;2024-01-16T05:53:22;12.35;;;11.10;;
48199;SDS011;33990;44.602;10.976;2024-01-16T05:55:50;11.27;;;10.07;;
48199;SDS011;33990;44.602;10.976;2024-01-16T05:58:17;11.70;;;10.50;;
48199;SDS011;33990;44.602;10.976;2024-01-16T06:00:44;11.63;;;10.48;;
48199;SDS011;33990;44.602;10.976;2024-01-16T06:03:12;12.77;;;11.02;;
48199;SDS011;33990;44.602;10.976;2024-01-16T06:05:39;11.85;;;10.52;;
48199;SDS011;33990;44.602;10.976;2024-01-16T06:08:07;13.25;;;11.85;;
48199;SDS011;33990;44.602;10.976;2024-01-16T06:10:34;12.35;;;11.02;;
48199;SDS011;33990;44.602;10.976;2024-01-16T06:13:02;13.05;;;11.32;;
48199;SDS011;33990;44.602;10.976;2024-01-16T06:15:29;11.93;;;9.90;;
48199;SDS011;33990;44.602;10.976;2024-01-16T06:17:57;11.63;;;9.68;;
48199;SDS011;33990;44.602;10.976;2024-01-16T06:20:24;12.70;;;10.18;;
48199;SDS011;33990;44.602;10.976;2024-01-16T06:22:52;12.60;;;11.25;;
48199;SDS011;33990;44.602;10.976;2024-01-16T06:25:20;11.55;;;10.35;;
48199;SDS011;33990;44.602;10.976;2024-01-16T06:27:47;11.70;;;10.50;;
48199;SDS011;33990;44.602;10.976;2024-01-16T06:30:14;11.38;;;9.98;;
48199;SDS011;33990;44.602;10.976;2024-01-16T06:32:42;12.05;;;10.18;;
48199;SDS011;33990;44.602;10.976;2024-01-16T06:35:12;11.27;;;9.77;;
48199;SDS011;33990;44.602;10.976;2024-01-16T06:37:40;11.45;;;10.30;;
48199;SDS011;33990;44.602;10.976;2024-01-16T06:40:08;11.10;;;9.90;;
48199;SDS011;33990;44.602;10.976;2024-01-16T06:42:36;10.80;;;9.65;;
48199;SDS011;33990;44.602;10.976;2024-01-16T06:45:04;11.32;;;10.15;;
48199;SDS011;33990;44.602;10.976;2024-01-16T06:47:32;10.25;;;9.23;;
48199;SDS011;33990;44.602;10.976;2024-01-16T06:49:59;11.85;;;10.65;;
48199;SDS011;33990;44.602;10.976;2024-01-16T06:52:27;11.90;;;10.48;;
48199;SDS011;33990;44.602;10.976;2024-01-16T06:54:54;10.55;;;9.48;;
48199;SDS011;33990;44.602;10.976;2024-01-16T06:57:22;10.90;;;9.80;;
48199;SDS011;33990;44.602;10.976;2024-01-16T06:59:49;12.48;;;10.27;;
48199;SDS011;33990;44.602;10.976;2024-01-16T07:02:16;10.48;;;9.38;;
48199;SDS011;33990;44.602;10.976;2024-01-16T07:04:44;11.38;;;10.23;;
48199;SDS011;33990;44.602;10.976;2024-01-16T07:07:11;11.80;;;10.35;;
48199;SDS011;33990;44.602;10.976;2024-01-16T07:09:39;11.13;;;10.02;;
48199;SDS011;33990;44.602;10.976;2024-01-16T07:12:06;10.57;;;9.55;;
48199;SDS011;33990;44.602;10.976;2024-01-16T07:14:33;10.57;;;9.38;;
48199;SDS011;33990;44.602;10.976;2024-01-16T07:17:01;11.77;;;9.35;;
48199;SDS011;33990;44.602;10.976;2024-01-16T07:19:28;10.30;;;9.23;;
48199;SDS011;33990;44.602;10.976;2024-01-16T07:21:55;11.52;;;10.18;;
48199;SDS011;33990;44.602;10.976;2024-01-16T07:24:23;10.48;;;9.25;;
48199;SDS011;33990;44.602;10.976;2024-01-16T07:26:50;12.50;;;10.07;;
48199;SDS011;33990;44.602;10.976;2024-01-16T07:29:18;10.25;;;9.25;;
48199;SDS011;33990;44.602;10.976;2024-01-16T07:31:46;11.05;;;9.70;;
48199;SDS011;33990;44.602;10.976;2024-01-16T07:34:13;9.77;;;8.77;;
48199;SDS011;33990;44.602;10.976;2024-01-16T07:36:47;12.13;;;9.95;;
48199;SDS011;33990;44.602;10.976;2024-01-16T07:39:14;10.70;;;9.63;;
48199;SDS011;33990;44.602;10.976;2024-01-16T07:41:41;10.70;;;9.60;;
48199;SDS011;33990;44.602;10.976;2024-01-16T07:44:09;11.13;;;10.02;;
48199;SDS011;33990;44.602;10.976;2024-01-16T07:46:36;11.80;;;10.60;;
48199;SDS011;33990;44.602;10.976;2024-01-16T07:49:04;10.90;;;9.73;;
48199;SDS011;33990;44.602;10.976;2024-01-16T07:51:33;13.02;;;9.82;;
48199;SDS011;33990;44.602;10.976;2024-01-16T07:54:06;10.57;;;8.98;;
48199;SDS011;33990;44.602;10.976;2024-01-16T07:56:35;10.13;;;9.02;;
48199;SDS011;33990;44.602;10.976;2024-01-16T07:59:03;10.68;;;9.40;;
48199;SDS011;33990;44.602;10.976;2024-01-16T08:01:30;11.30;;;10.15;;
48199;SDS011;33990;44.602;10.976;2024-01-16T08:03:59;11.27;;;9.30;;
48199;SDS011;33990;44.602;10.976;2024-01-16T08:06:29;11.73;;;10.52;;
48199;SDS011;33990;44.602;10.976;2024-01-16T08:08:57;11.18;;;10.07;;
48199;SDS011;33990;44.602;10.976;2024-01-16T08:11:32;11.57;;;10.27;;
48199;SDS011;33990;44.602;10.976;2024-01-16T08:14:13;11.15;;;10.05;;
48199;SDS011;33990;44.602;10.976;2024-01-16T08:16:40;9.90;;;8.90;;
48199;SDS011;33990;44.602;10.976;2024-01-16T08:19:11;10.95;;;9.80;;
48199;SDS011;33990;44.602;10.976;2024-01-16T08:21:38;13.55;;;11.20;;
48199;SDS011;33990;44.602;10.976;2024-01-16T08:24:06;11.60;;;9.73;;
48199;SDS011;33990;44.602;10.976;2024-01-16T08:26:33;12.25;;;10.35;;
48199;SDS011;33990;44.602;10.976;2024-01-16T08:29:01;11.38;;;10.23;;
48199;SDS011;33990;44.602;10.976;2024-01-16T08:31:28;12.38;;;10.18;;
48199;SDS011;33990;44.602;10.976;2024-01-16T08:33:56;11.80;;;10.57;;
48199;SDS011;33990;44.602;10.976;2024-01-16T08:36:24;12.50;;;10.20;;
48199;SDS011;33990;44.602;10.976;2024-01-16T08:38:52;11.95;;;10.52;;
48199;SDS011;33990;44.602;10.976;2024-01-16T08:41:19;12.23;;;10.02;;
48199;SDS011;33990;44.602;10.976;2024-01-16T08:43:47;11.30;;;10.23;;
48199;SDS011;33990;44.602;10.976;2024-01-16T08:46:14;10.88;;;9.80;;
48199;SDS011;33990;44.602;10.976;2024-01-16T08:48:42;11.55;;;9.57;;
48199;SDS011;33990;44.602;10.976;2024-01-16T08:51:10;10.40;;;9.15;;
48199;SDS011;33990;44.602;10.976;2024-01-16T08:53:42;11.40;;;10.20;;
48199;SDS011;33990;44.602;10.976;2024-01-16T08:56:09;10.77;;;9.68;;
48199;SDS011;33990;44.602;10.976;2024-01-16T08:58:39;11.70;;;9.50;;
48199;SDS011;33990;44.602;10.976;2024-01-16T09:01:07;12.30;;;10.18;;
48199;SDS011;33990;44.602;10.976;2024-01-16T09:03:35;10.85;;;9.75;;
48199;SDS011;33990;44.602;10.976;2024-01-16T09:06:03;11.75;;;9.80;;
48199;SDS011;33990;44.602;10.976;2024-01-16T09:08:31;11.13;;;10.02;;
48199;SDS011;33990;44.602;10.976;2024-01-16T09:10:59;12.32;;;10.52;;
48199;SDS011;33990;44.602;10.976;2024-01-16T09:13:27;17.10;;;15.35;;
48199;SDS011;33990;44.602;10.976;2024-01-16T09:15:54;19.85;;;17.77;;
48199;SDS011;33990;44.602;10.976;2024-01-16T09:18:21;21.65;;;19.45;;
48199;SDS011;33990;44.602;10.976;2024-01-16T09:20:50;22.58;;;19.85;;
48199;SDS011;33990;44.602;10.976;2024-01-16T09:23:17;18.80;;;16.60;;
48199;SDS011;33990;44.602;10.976;2024-01-16T09:25:44;18.52;;;16.55;;
48199;SDS011;33990;44.602;10.976;2024-01-16T09:28:14;16.88;;;15.07;;
48199;SDS011;33990;44.602;10.976;2024-01-16T09:30:42;15.30;;;13.35;;
48199;SDS011;33990;44.602;10.976;2024-01-16T09:33:09;14.75;;;13.15;;
48199;SDS011;33990;44.602;10.976;2024-01-16T09:35:38;15.82;;;13.90;;
48199;SDS011;33990;44.602;10.976;2024-01-16T09:38:05;15.10;;;13.52;;
48199;SDS011;33990;44.602;10.976;2024-01-16T09:40:32;14.85;;;13.30;;
48199;SDS011;33990;44.602;10.976;2024-01-16T09:43:02;14.43;;;12.80;;
48199;SDS011;33990;44.602;10.976;2024-01-16T09:45:31;14.35;;;12.95;;
48199;SDS011;33990;44.602;10.976;2024-01-16T09:48:00;14.05;;;12.75;;
48199;SDS011;33990;44.602;10.976;2024-01-16T09:50:29;15.25;;;13.45;;
48199;SDS011;33990;44.602;10.976;2024-01-16T09:52:57;15.82;;;12.63;;
48199;SDS011;33990;44.602;10.976;2024-01-16T09:55:26;14.10;;;12.15;;
48199;SDS011;33990;44.602;10.976;2024-01-16T09:57:54;13.18;;;11.80;;
48199;SDS011;33990;44.602;10.976;2024-01-16T10:00:25;13.27;;;11.85;;
48199;SDS011;33990;44.602;10.976;2024-01-16T10:02:57;15.77;;;12.17;;
48199;SDS011;33990;44.602;10.976;2024-01-16T10:05:26;13.48;;;12.00;;
48199;SDS011;33990;44.602;10.976;2024-01-16T10:07:54;13.00;;;11.75;;
48199;SDS011;33990;44.602;10.976;2024-01-16T10:10:22;13.88;;;11.43;;
48199;SDS011;33990;44.602;10.976;2024-01-16T10:13:12;13.10;;;11.68;;
48199;SDS011;33990;44.602;10.976;2024-01-16T10:15:41;13.73;;;11.98;;
48199;SDS011;33990;44.602;10.976;2024-01-16T10:18:28;12.40;;;11.10;;
48199;SDS011;33990;44.602;10.976;2024-01-16T10:21:01;13.68;;;11.60;;
48199;SDS011;33990;44.602;10.976;2024-01-16T10:23:29;12.98;;;11.68;;
48199;SDS011;33990;44.602;10.976;2024-01-16T10:28:41;12.45;;;11.20;;
48199;SDS011;33990;44.602;10.976;2024-01-16T10:31:10;12.20;;;10.90;;
48199;SDS011;33990;44.602;10.976;2024-01-16T10:33:39;12.02;;;10.75;;
48199;SDS011;33990;44.602;10.976;2024-01-16T10:38:44;12.18;;;10.95;;
48199;SDS011;33990;44.602;10.976;2024-01-16T10:41:19;13.18;;;11.52;;
48199;SDS011;33990;44.602;10.976;2024-01-16T10:44:04;11.95;;;10.75;;
48199;SDS011;33990;44.602;10.976;2024-01-16T10:46:35;14.85;;;11.73;;
48199;SDS011;33990;44.602;10.976;2024-01-16T10:49:06;12.27;;;11.07;;
48199;SDS011;33990;44.602;10.976;2024-01-16T10:51:34;12.43;;;11.13;;
48199;SDS011;33990;44.602;10.976;2024-01-16T10:54:02;11.82;;;10.73;;
48199;SDS011;33990;44.602;10.976;2024-01-16T10:56:36;13.73;;;12.23;;
48199;SDS011;33990;44.602;10.976;2024-01-16T11:01:43;12.25;;;10.90;;
48199;SDS011;33990;44.602;10.976;2024-01-16T11:04:14;12.52;;;11.18;;
48199;SDS011;33990;44.602;10.976;2024-01-16T11:06:43;11.95;;;10.80;;
48199;SDS011;33990;44.602;10.976;2024-01-16T11:09:12;12.25;;;10.98;;
48199;SDS011;33990;44.602;10.976;2024-01-16T11:11:44;11.75;;;10.65;;
48199;SDS011;33990;44.602;10.976;2024-01-16T11:14:23;11.30;;;9.93;;
48199;SDS011;33990;44.602;10.976;2024-01-16T11:16:53;11.07;;;9.98;;
48199;SDS011;33990;44.602;10.976;2024-01-16T11:19:21;11.05;;;9.55;;
48199;SDS011;33990;44.602;10.976;2024-01-16T11:22:09;12.35;;;11.15;;
48199;SDS011;33990;44.602;10.976;2024-01-16T11:24:37;14.57;;;11.68;;
48199;SDS011;33990;44.602;10.976;2024-01-16T11:27:05;13.25;;;11.50;;
48199;SDS011;33990;44.602;10.976;2024-01-16T11:32:00;12.27;;;11.05;;
48199;SDS011;33990;44.602;10.976;2024-01-16T11:37:38;12.10;;;10.77;;
48199;SDS011;33990;44.602;10.976;2024-01-16T11:42:52;12.70;;;11.05;;
48199;SDS011;33990;44.602;10.976;2024-01-16T11:48:12;14.65;;;11.10;;
48199;SDS011;33990;44.602;10.976;2024-01-16T11:50:41;12.93;;;11.70;;
48199;SDS011;33990;44.602;10.976;2024-01-16T11:53:09;11.25;;;10.15;;
48199;SDS011;33990;44.602;10.976;2024-01-16T11:58:42;12.75;;;11.43;;
48199;SDS011;33990;44.602;10.976;2024-01-16T12:01:12;12.07;;;10.88;;
48199;SDS011;33990;44.602;10.976;2024-01-16T12:03:39;11.88;;;10.63;;
48199;SDS011;33990;44.602;10.976;2024-01-16T12:06:07;11.48;;;10.32;;
48199;SDS011;33990;44.602;10.976;2024-01-16T12:08:36;11.25;;;10.15;;
48199;SDS011;33990;44.602;10.976;2024-01-16T12:11:04;11.52;;;10.32;;
48199;SDS011;33990;44.602;10.976;2024-01-16T12:13:31;11.35;;;10.25;;
48199;SDS011;33990;44.602;10.976;2024-01-16T12:16:03;11.45;;;10.20;;
48199;SDS011;33990;44.602;10.976;2024-01-16T12:18:32;11.95;;;10.75;;
48199;SDS011;33990;44.602;10.976;2024-01-16T12:21:10;11.60;;;10.45;;
48199;SDS011;33990;44.602;10.976;2024-01-16T12:23:39;11.00;;;9.85;;
48199;SDS011;33990;44.602;10.976;2024-01-16T12:26:22;12.00;;;10.80;;
48199;SDS011;33990;44.602;10.976;2024-01-16T12:28:53;12.23;;;10.88;;
48199;SDS011;33990;44.602;10.976;2024-01-16T12:31:28;12.70;;;9.98;;
48199;SDS011;33990;44.602;10.976;2024-01-16T12:34:06;11.73;;;10.18;;
48199;SDS011;33990;44.602;10.976;2024-01-16T12:36:37;11.82;;;10.60;;
48199;SDS011;33990;44.602;10.976;2024-01-16T12:39:05;11.00;;;9.82;;
48199;SDS011;33990;44.602;10.976;2024-01-16T12:41:37;11.13;;;10.07;;
48199;SDS011;33990;44.602;10.976;2024-01-16T12:44:12;11.15;;;9.93;;
48199;SDS011;33990;44.602;10.976;2024-01-16T12:46:56;10.52;;;9.52;;
48199;SDS011;33990;44.602;10.976;2024-01-16T12:49:24;10.93;;;9.82;;
48199;SDS011;33990;44.602;10.976;2024-01-16T12:52:04;10.23;;;9.15;;
48199;SDS011;33990;44.602;10.976;2024-01-16T12:54:43;10.25;;;9.15;;
48199;SDS011;33990;44.602;10.976;2024-01-16T12:57:10;10.85;;;9.60;;
48199;SDS011;33990;44.602;10.976;2024-01-16T12:59:44;10.68;;;9.55;;
48199;SDS011;33990;44.602;10.976;2024-01-16T13:04:55;10.98;;;9.88;;
48199;SDS011;33990;44.602;10.976;2024-01-16T13:07:25;10.18;;;9.15;;
48199;SDS011;33990;44.602;10.976;2024-01-16T13:10:07;10.93;;;9.82;;
48199;SDS011;33990;44.602;10.976;2024-01-16T13:12:35;10.70;;;9.63;;
48199;SDS011;33990;44.602;10.976;2024-01-16T13:15:03;10.95;;;9.77;;
48199;SDS011;33990;44.602;10.976;2024-01-16T13:17:34;11.52;;;9.90;;
48199;SDS011;33990;44.602;10.976;2024-01-16T13:20:03;13.80;;;11.27;;
48199;SDS011;33990;44.602;10.976;2024-01-16T13:22:35;11.63;;;10.45;;
48199;SDS011;33990;44.602;10.976;2024-01-16T13:25:12;11.90;;;10.68;;
48199;SDS011;33990;44.602;10.976;2024-01-16T13:27:39;11.25;;;10.13;;
48199;SDS011;33990;44.602;10.976;2024-01-16T13:30:07;10.20;;;9.10;;
48199;SDS011;33990;44.602;10.976;2024-01-16T13:32:35;11.00;;;9.32;;
48199;SDS011;33990;44.602;10.976;2024-01-16T13:35:05;11.93;;;9.90;;
48199;SDS011;33990;44.602;10.976;2024-01-16T13:37:41;10.40;;;9.30;;
48199;SDS011;33990;44.602;10.976;2024-01-16T13:40:08;10.32;;;9.32;;
48199;SDS011;33990;44.602;10.976;2024-01-16T13:42:42;10.40;;;9.40;;
48199;SDS011;33990;44.602;10.976;2024-01-16T13:45:09;10.32;;;9.25;;
48199;SDS011;33990;44.602;10.976;2024-01-16T13:47:40;10.50;;;9.40;;
48199;SDS011;33990;44.602;10.976;2024-01-16T13:50:09;10.07;;;9.05;;
48199;SDS011;33990;44.602;10.976;2024-01-16T13:52:36;10.82;;;9.07;;
48199;SDS011;33990;44.602;10.976;2024-01-16T13:55:04;10.30;;;9.23;;
48199;SDS011;33990;44.602;10.976;2024-01-16T13:57:32;10.02;;;8.93;;
48199;SDS011;33990;44.602;10.976;2024-01-16T14:00:04;9.27;;;8.32;;
48199;SDS011;33990;44.602;10.976;2024-01-16T14:02:42;10.07;;;8.98;;
48199;SDS011;33990;44.602;10.976;2024-01-16T14:05:12;9.45;;;8.45;;
48199;SDS011;33990;44.602;10.976;2024-01-16T14:07:45;10.70;;;9.30;;
48199;SDS011;33990;44.602;10.976;2024-01-16T14:10:15;9.57;;;8.57;;
48199;SDS011;33990;44.602;10.976;2024-01-16T14:12:42;10.05;;;9.05;;
48199;SDS011;33990;44.602;10.976;2024-01-16T14:15:12;10.23;;;8.88;;
48199;SDS011;33990;44.602;10.976;2024-01-16T14:17:47;9.90;;;8.90;;
48199;SDS011;33990;44.602;10.976;2024-01-16T14:20:22;9.23;;;8.32;;
48199;SDS011;33990;44.602;10.976;2024-01-16T14:22:54;10.70;;;8.77;;
48199;SDS011;33990;44.602;10.976;2024-01-16T14:25:22;10.85;;;9.43;;
48199;SDS011;33990;44.602;10.976;2024-01-16T14:27:57;9.00;;;8.10;;
48199;SDS011;33990;44.602;10.976;2024-01-16T14:30:33;9.90;;;8.77;;
48199;SDS011;33990;44.602;10.976;2024-01-16T14:33:02;9.68;;;8.77;;
48199;SDS011;33990;44.602;10.976;2024-01-16T14:35:30;8.88;;;7.95;;
48199;SDS011;33990;44.602;10.976;2024-01-16T14:37:57;8.75;;;7.75;;
48199;SDS011;33990;44.602;10.976;2024-01-16T14:40:25;9.63;;;8.63;;
48199;SDS011;33990;44.602;10.976;2024-01-16T14:42:52;10.77;;;8.65;;
48199;SDS011;33990;44.602;10.976;2024-01-16T14:45:21;9.07;;;8.18;;
48199;SDS011;33990;44.602;10.976;2024-01-16T14:47:49;9.30;;;8.30;;
48199;SDS011;33990;44.602;10.976;2024-01-16T14:50:17;9.02;;;8.05;;